Accueil
METAR-TAF:

METAR-TAF

Aéroports :

Wellsville Municipal Airport (Tarantine Field)

Wellsville, New York, États-Unis

latitude: 42-06-27N, longitude: 077-59-04W, altitude: 647 m

Observation

Le bulletin a été fait il y a 1 heure et 4 minutes, à 07:56 UTC
Vent 9 kt de ouest/sud-ouest
Température 13°C
Humidité 72%
Pression 1017 hPa
Visibilité: 16.1 km
Quelques nuages à une hauteur de 12000 ft

METAR: KELZ 210756Z AUTO 24009KT 10SM FEW120 13/08 A3002 RMK AO2 SLP161 T01280078

Heure: 05:00 (09:00 UTC)


TAF: absent

Observations et prévisions météorologiques de plus de 4000 aéroports (messages METAR et TAF).

Les stations disponibles sont représentées par des disques jaunes et rouges sur la carte.

Passer la souris dessus pour voir le nom de la station.

Cliquer dessus pour voir les observations et prévisions météorologiques.

Pour changer de carte: cliquez sur les boutons verts avec une croix noire pour zoomer, sur le bouton vert avec un tiret pour effectuer un zoom arrière, ou sur les flèches vertes pour les cartes adjacentes.


METAR-TAF: